Time;durP1;ratioP1;P1;durP2;ratioP2;P2;SDS_P1;SDS_P2;PMS_P1;PMS_P2;Temp;Humidity;BMP_temperature;BMP_pressure;BME280_temperature;BME280_humidity;BME280_pressure;Samples;Min_cycle;Max_cycle;Signal;HPM_P1;HPM_P2
2023/05/29 00:00:45;;;;;;;12.40;2.40;;;10.20;99.90;;;;;;5090237;28;20037;-85
2023/05/29 00:03:12;;;;;;;17.52;5.15;;;10.20;99.90;;;;;;5086416;28;20040;-86
2023/05/29 00:05:39;;;;;;;12.38;2.38;;;10.20;99.90;;;;;;5086471;28;20098;-85
2023/05/29 00:08:06;;;;;;;17.00;2.72;;;10.20;99.90;;;;;;5053007;28;20079;-85
2023/05/29 00:10:33;;;;;;;16.35;2.05;;;10.20;99.90;;;;;;5037260;28;20041;-85
2023/05/29 00:13:00;;;;;;;11.30;2.10;;;10.10;99.90;;;;;;5053322;28;20448;-85
2023/05/29 00:15:28;;;;;;;8.90;1.90;;;10.10;99.90;;;;;;5036950;28;20421;-85
2023/05/29 00:17:55;;;;;;;8.75;2.10;;;10.20;99.90;;;;;;5103147;28;20048;-85
2023/05/29 00:20:21;;;;;;;14.15;2.05;;;10.10;99.90;;;;;;5052996;28;20393;-85
2023/05/29 00:22:49;;;;;;;9.63;2.10;;;10.10;99.90;;;;;;5069539;28;20379;-85
2023/05/29 00:25:15;;;;;;;11.57;1.83;;;10.10;99.90;;;;;;5066965;28;20045;-86
2023/05/29 00:27:42;;;;;;;8.25;2.08;;;10.10;99.90;;;;;;5073166;28;20033;-85
2023/05/29 00:30:09;;;;;;;13.02;2.20;;;10.10;99.90;;;;;;5057250;28;20097;-85
2023/05/29 00:32:36;;;;;;;13.70;2.40;;;10.10;99.90;;;;;;5073116;28;20040;-85
2023/05/29 00:35:02;;;;;;;14.70;2.33;;;10.00;99.90;;;;;;5073050;28;20040;-85
2023/05/29 00:37:29;;;;;;;11.20;2.25;;;10.00;99.90;;;;;;5072704;28;20059;-85
2023/05/29 00:39:56;;;;;;;15.65;2.45;;;10.00;99.90;;;;;;5056244;28;20048;-85
2023/05/29 00:42:23;;;;;;;14.00;2.03;;;10.00;99.90;;;;;;5072727;28;20040;-85
2023/05/29 00:44:49;;;;;;;15.80;2.78;;;9.90;99.90;;;;;;5056624;28;20072;-85
2023/05/29 00:47:16;;;;;;;10.70;1.70;;;9.90;99.90;;;;;;5072425;28;20074;-85
2023/05/29 00:49:43;;;;;;;12.05;2.80;;;9.90;99.90;;;;;;5056583;28;20132;-85
2023/05/29 00:52:11;;;;;;;15.10;2.65;;;10.00;99.90;;;;;;5058501;28;20078;-85
2023/05/29 00:54:39;;;;;;;12.40;2.03;;;9.90;99.90;;;;;;5075873;28;20170;-86
2023/05/29 00:57:05;;;;;;;17.13;2.42;;;9.90;99.90;;;;;;5043138;28;20123;-85
2023/05/29 00:59:33;;;;;;;13.88;2.38;;;9.90;99.90;;;;;;5059590;28;20171;-85
2023/05/29 01:02:02;;;;;;;13.88;2.25;;;9.90;99.90;;;;;;5092893;28;20043;-85
2023/05/29 01:04:29;;;;;;;10.15;2.10;;;9.90;99.90;;;;;;5093056;28;20040;-85
2023/05/29 01:06:57;;;;;;;13.23;2.17;;;9.90;99.90;;;;;;5076505;28;20041;-85
2023/05/29 01:09:23;;;;;;;10.73;2.03;;;9.90;99.90;;;;;;5076802;28;20051;-85
2023/05/29 01:12:17;;;;;;;12.38;2.00;;;9.90;99.90;;;;;;5060154;28;20056;-85
2023/05/29 01:15:11;;;;;;;17.83;2.50;;;9.90;99.90;;;;;;5093108;28;20183;-85
2023/05/29 01:18:10;;;;;;;15.40;2.33;;;9.90;99.90;;;;;;5092754;28;20479;-86
2023/05/29 01:21:02;;;;;;;19.85;2.55;;;9.90;99.90;;;;;;5091013;28;20102;-85
2023/05/29 01:23:52;;;;;;;13.10;2.05;;;9.80;99.90;;;;;;5092160;28;20418;-85
2023/05/29 01:26:51;;;;;;;12.07;1.90;;;9.90;99.90;;;;;;5092425;28;20040;-85
2023/05/29 01:29:31;;;;;;;13.63;2.15;;;9.90;99.90;;;;;;5092822;28;20044;-85
2023/05/29 01:31:58;;;;;;;16.42;2.70;;;9.90;99.90;;;;;;5092693;28;20401;-85
2023/05/29 01:34:25;;;;;;;12.57;2.47;;;9.90;99.90;;;;;;5075544;28;20036;-85
2023/05/29 01:36:52;;;;;;;11.95;2.20;;;9.90;99.90;;;;;;5092574;28;20036;-85
2023/05/29 01:39:21;;;;;;;12.50;2.45;;;9.90;99.90;;;;;;5059542;28;20044;-85
2023/05/29 01:41:48;;;;;;;8.20;2.45;;;9.80;99.90;;;;;;5092459;28;20040;-85
2023/05/29 01:44:16;;;;;;;12.95;2.28;;;9.90;99.90;;;;;;5075737;28;20123;-85
2023/05/29 01:46:45;;;;;;;15.43;3.00;;;9.80;99.90;;;;;;5092298;28;20036;-85
2023/05/29 01:49:12;;;;;;;14.70;2.88;;;9.80;99.90;;;;;;5075704;28;20404;-85
2023/05/29 01:51:42;;;;;;;12.93;2.85;;;9.80;99.90;;;;;;5092102;28;20044;-85
2023/05/29 01:54:10;;;;;;;15.38;3.53;;;9.80;99.90;;;;;;5092550;28;20036;-85
2023/05/29 01:56:37;;;;;;;19.73;2.65;;;9.80;99.90;;;;;;5092070;28;20040;-85
2023/05/29 01:59:05;;;;;;;12.98;2.55;;;9.70;99.90;;;;;;5092297;28;20029;-86
2023/05/29 02:01:32;;;;;;;12.75;2.63;;;9.70;99.90;;;;;;5075426;28;20075;-85
2023/05/29 02:03:59;;;;;;;18.65;3.08;;;9.70;99.90;;;;;;5090703;28;20512;-85
2023/05/29 02:06:26;;;;;;;16.27;3.30;;;9.70;99.90;;;;;;5074555;28;20075;-85
2023/05/29 02:08:52;;;;;;;10.65;2.28;;;9.60;99.90;;;;;;5092225;28;20029;-85
2023/05/29 02:11:20;;;;;;;14.85;3.40;;;9.60;99.90;;;;;;5091909;28;20053;-85
2023/05/29 02:13:46;;;;;;;12.02;2.28;;;9.60;99.90;;;;;;5058697;28;20649;-85
2023/05/29 02:16:13;;;;;;;14.90;2.53;;;9.60;99.90;;;;;;5040465;28;20041;-85
2023/05/29 02:18:41;;;;;;;16.10;3.00;;;9.50;99.90;;;;;;5038674;28;20080;-85
2023/05/29 02:21:08;;;;;;;12.52;2.38;;;9.50;99.90;;;;;;5071682;28;20435;-85
2023/05/29 02:23:35;;;;;;;12.82;2.05;;;9.50;99.90;;;;;;5038810;28;20086;-85
2023/05/29 02:26:01;;;;;;;16.35;2.88;;;9.50;99.90;;;;;;5038850;28;20033;-85
2023/05/29 02:28:28;;;;;;;11.52;2.65;;;9.50;99.90;;;;;;5054522;28;20497;-85
2023/05/29 02:30:55;;;;;;;12.73;2.65;;;9.50;99.90;;;;;;5075399;28;20519;-86
2023/05/29 02:33:21;;;;;;;17.58;3.00;;;9.40;99.90;;;;;;5058766;28;20128;-85
2023/05/29 02:35:48;;;;;;;13.98;2.72;;;9.40;99.90;;;;;;5074708;28;20040;-85
2023/05/29 02:38:15;;;;;;;14.20;3.13;;;9.40;99.90;;;;;;5074757;28;20051;-85
2023/05/29 02:40:41;;;;;;;24.02;5.82;;;9.30;99.90;;;;;;5058392;28;20037;-85
2023/05/29 02:43:12;;;;;;;13.10;2.88;;;9.30;99.90;;;;;;5074706;28;20040;-85
2023/05/29 02:45:39;;;;;;;13.93;3.88;;;9.30;99.90;;;;;;5107754;28;20094;-85
2023/05/29 02:48:06;;;;;;;14.82;4.40;;;9.30;99.90;;;;;;5052642;28;20481;-85
2023/05/29 02:50:32;;;;;;;12.20;4.10;;;9.30;99.90;;;;;;5054328;28;20513;-85
2023/05/29 02:52:59;;;;;;;14.27;3.45;;;9.30;99.90;;;;;;5038319;28;20037;-86
2023/05/29 02:55:26;;;;;;;12.02;3.47;;;9.20;99.90;;;;;;5038536;28;20041;-85
2023/05/29 02:57:55;;;;;;;9.00;2.83;;;9.20;99.90;;;;;;5057119;28;20048;-85
2023/05/29 03:00:21;;;;;;;14.82;3.58;;;9.20;99.90;;;;;;5074206;28;20044;-85
2023/05/29 03:02:48;;;;;;;16.85;2.70;;;9.20;99.90;;;;;;5057175;28;20093;-85
2023/05/29 03:05:16;;;;;;;11.50;2.60;;;9.20;99.90;;;;;;5090476;28;20048;-86
2023/05/29 03:07:43;;;;;;;12.23;2.65;;;9.20;99.90;;;;;;5057547;28;20032;-86
2023/05/29 03:10:10;;;;;;;17.02;2.83;;;9.20;99.90;;;;;;5056540;28;20036;-86
2023/05/29 03:12:37;;;;;;;10.60;2.45;;;9.20;99.90;;;;;;5057035;28;20596;-86
2023/05/29 03:15:04;;;;;;;16.48;2.20;;;9.20;99.90;;;;;;5073718;28;20101;-86
2023/05/29 03:17:31;;;;;;;15.52;2.40;;;9.20;99.90;;;;;;5074124;28;20048;-86
2023/05/29 03:19:58;;;;;;;15.77;3.50;;;9.20;99.90;;;;;;5073642;28;20503;-86
2023/05/29 03:22:24;;;;;;;18.17;2.85;;;9.20;99.90;;;;;;5044071;28;20374;-86
2023/05/29 03:24:51;;;;;;;13.07;2.60;;;9.20;99.90;;;;;;5053559;28;20401;-86
2023/05/29 03:27:18;;;;;;;13.82;3.50;;;9.20;99.90;;;;;;5037415;28;20498;-86
2023/05/29 03:29:45;;;;;;;12.73;4.30;;;9.20;99.90;;;;;;5037112;28;20456;-86
2023/05/29 03:32:11;;;;;;;16.23;3.38;;;9.20;99.90;;;;;;5053832;28;20040;-86
2023/05/29 03:34:39;;;;;;;13.65;3.20;;;9.30;99.90;;;;;;5037136;28;20095;-86
2023/05/29 03:37:06;;;;;;;10.43;2.80;;;9.30;99.90;;;;;;5037913;28;20405;-86
2023/05/29 03:39:33;;;;;;;11.90;2.35;;;9.30;99.90;;;;;;5037139;28;20044;-86
2023/05/29 03:42:00;;;;;;;12.50;2.75;;;9.40;99.90;;;;;;5037136;28;20048;-86
2023/05/29 03:44:26;;;;;;;15.68;2.83;;;9.40;99.90;;;;;;5086493;28;20076;-86
2023/05/29 03:46:53;;;;;;;11.18;3.38;;;9.40;99.90;;;;;;5036960;28;20094;-85
2023/05/29 03:49:20;;;;;;;14.30;2.88;;;9.40;99.90;;;;;;5053615;28;20052;-86
2023/05/29 03:51:46;;;;;;;13.05;2.40;;;9.50;99.90;;;;;;5053508;28;20517;-86
2023/05/29 03:54:13;;;;;;;12.88;2.38;;;9.50;99.90;;;;;;5037212;28;20036;-86
2023/05/29 03:56:40;;;;;;;14.57;2.85;;;9.60;99.90;;;;;;5065966;28;20123;-86
2023/05/29 03:59:07;;;;;;;14.80;2.13;;;9.60;99.90;;;;;;5057286;28;20041;-85
2023/05/29 04:01:33;;;;;;;11.52;1.98;;;9.60;99.90;;;;;;5056775;28;20040;-86
2023/05/29 04:04:00;;;;;;;10.73;2.30;;;9.60;99.90;;;;;;5067484;28;20044;-86
2023/05/29 04:06:27;;;;;;;11.38;2.50;;;9.60;99.90;;;;;;5053461;28;20053;-86
2023/05/29 04:08:53;;;;;;;13.38;2.53;;;9.70;99.90;;;;;;5053424;28;20072;-86
2023/05/29 04:11:20;;;;;;;15.43;2.70;;;9.70;99.90;;;;;;5053295;28;20053;-85
2023/05/29 04:13:47;;;;;;;16.33;2.63;;;9.70;99.90;;;;;;5053654;28;20409;-85
2023/05/29 04:16:15;;;;;;;11.73;2.50;;;9.70;99.90;;;;;;5051461;28;20036;-86
2023/05/29 04:18:42;;;;;;;12.38;2.03;;;9.70;99.90;;;;;;5069714;28;20037;-86
2023/05/29 04:21:09;;;;;;;13.75;2.58;;;9.70;99.90;;;;;;5069702;28;20043;-85
2023/05/29 04:23:36;;;;;;;14.00;2.40;;;9.80;99.90;;;;;;5070102;28;20033;-86
2023/05/29 04:26:03;;;;;;;15.25;2.30;;;9.80;99.90;;;;;;5052168;28;20048;-86
2023/05/29 04:28:29;;;;;;;14.30;2.55;;;9.80;99.90;;;;;;5067539;28;20068;-86
2023/05/29 04:30:56;;;;;;;14.73;2.65;;;9.80;99.90;;;;;;5036558;28;20102;-86
2023/05/29 04:33:23;;;;;;;12.02;2.28;;;9.90;99.90;;;;;;5037166;28;20128;-86
2023/05/29 04:35:50;;;;;;;13.52;2.25;;;9.90;99.90;;;;;;5069279;28;20482;-85
2023/05/29 04:38:19;;;;;;;12.20;2.65;;;9.90;99.90;;;;;;5036559;28;20140;-86
2023/05/29 04:40:45;;;;;;;15.23;2.28;;;10.00;99.90;;;;;;5053001;28;20123;-86
2023/05/29 04:43:12;;;;;;;16.23;2.58;;;10.00;99.90;;;;;;5072511;28;20786;-86
2023/05/29 04:45:39;;;;;;;13.98;2.35;;;10.00;99.90;;;;;;5089311;28;20047;-86
2023/05/29 04:48:05;;;;;;;16.58;3.90;;;10.00;99.90;;;;;;5072870;28;20090;-86
2023/05/29 04:50:33;;;;;;;15.95;4.05;;;10.10;99.90;;;;;;5060891;28;20060;-86
2023/05/29 04:52:59;;;;;;;13.65;3.10;;;10.10;99.90;;;;;;5068833;28;20041;-86
2023/05/29 04:55:27;;;;;;;10.45;2.13;;;10.20;99.90;;;;;;5052647;28;20736;-86
2023/05/29 04:57:54;;;;;;;13.27;2.53;;;10.20;99.90;;;;;;5068937;28;20533;-85
2023/05/29 05:00:20;;;;;;;13.32;2.67;;;10.30;99.90;;;;;;5069367;28;20180;-86
2023/05/29 05:02:49;;;;;;;13.25;2.20;;;10.30;99.90;;;;;;5059769;28;20063;-86
2023/05/29 05:05:16;;;;;;;12.68;2.20;;;10.30;99.90;;;;;;5083862;28;20082;-86
2023/05/29 05:07:43;;;;;;;14.13;2.28;;;10.30;99.90;;;;;;5052536;28;20041;-86
2023/05/29 05:10:10;;;;;;;12.18;2.13;;;10.30;99.90;;;;;;5038454;28;20116;-86
2023/05/29 05:12:36;;;;;;;13.63;2.50;;;10.30;99.90;;;;;;5088854;28;20060;-86
2023/05/29 05:15:04;;;;;;;9.48;2.40;;;10.40;99.90;;;;;;5055912;28;20439;-86
2023/05/29 05:17:31;;;;;;;14.55;2.35;;;10.40;99.90;;;;;;5056345;28;20049;-86
2023/05/29 05:19:57;;;;;;;15.15;2.20;;;10.40;99.90;;;;;;5072098;28;20044;-86
2023/05/29 05:22:24;;;;;;;12.75;2.28;;;10.40;99.90;;;;;;5039486;28;20033;-86
2023/05/29 05:24:52;;;;;;;8.27;2.28;;;10.50;99.90;;;;;;5036030;28;20051;-86
2023/05/29 05:27:19;;;;;;;13.95;2.38;;;10.50;99.90;;;;;;5069232;28;20040;-85
2023/05/29 05:29:46;;;;;;;12.48;2.65;;;10.40;99.90;;;;;;5052389;28;20159;-86
2023/05/29 05:32:12;;;;;;;12.30;2.83;;;10.50;99.90;;;;;;5036956;28;20175;-85
2023/05/29 05:34:39;;;;;;;19.92;3.15;;;10.60;99.90;;;;;;5040095;28;20037;-85
2023/05/29 05:37:07;;;;;;;12.45;2.50;;;10.50;99.90;;;;;;5072794;28;20040;-86
2023/05/29 05:39:34;;;;;;;13.43;2.67;;;10.60;99.90;;;;;;5092263;28;20048;-86
2023/05/29 05:42:01;;;;;;;11.68;2.55;;;10.60;99.90;;;;;;5075556;28;20041;-86
2023/05/29 05:44:27;;;;;;;11.23;2.30;;;10.70;99.90;;;;;;5092752;28;20051;-85
2023/05/29 05:46:54;;;;;;;10.80;2.13;;;10.70;99.90;;;;;;5075837;28;20033;-85
2023/05/29 05:49:21;;;;;;;10.52;3.00;;;10.80;99.90;;;;;;5091703;28;20583;-86
2023/05/29 05:51:48;;;;;;;13.85;2.58;;;10.80;99.90;;;;;;5085665;28;20123;-86
2023/05/29 05:54:14;;;;;;;19.25;3.20;;;10.90;99.90;;;;;;5066589;28;20041;-86
2023/05/29 05:56:41;;;;;;;15.20;2.58;;;10.90;99.90;;;;;;5092218;28;20045;-86
2023/05/29 05:59:08;;;;;;;18.38;2.72;;;10.90;99.90;;;;;;5058699;28;20040;-86
2023/05/29 06:01:36;;;;;;;12.38;3.13;;;11.00;99.90;;;;;;5059002;28;20034;-86
2023/05/29 06:04:02;;;;;;;17.98;2.90;;;11.10;99.90;;;;;;5055606;28;20064;-86
2023/05/29 06:06:31;;;;;;;13.45;3.20;;;11.10;99.90;;;;;;5055363;28;20130;-85
2023/05/29 06:08:58;;;;;;;14.05;2.75;;;11.20;99.90;;;;;;5058473;28;20055;-86
2023/05/29 06:11:25;;;;;;;14.02;3.20;;;11.20;99.90;;;;;;5066080;28;20132;-86
2023/05/29 06:13:52;;;;;;;10.38;2.72;;;11.30;99.90;;;;;;5092029;28;20127;-85
2023/05/29 06:16:19;;;;;;;12.77;2.83;;;11.40;99.90;;;;;;5091853;28;20504;-86
2023/05/29 06:18:46;;;;;;;12.40;2.60;;;11.40;99.90;;;;;;5092000;28;20040;-85
2023/05/29 06:21:13;;;;;;;24.67;3.50;;;11.50;99.90;;;;;;5058712;28;20046;-88
2023/05/29 06:23:41;;;;;;;15.43;2.85;;;11.60;99.90;;;;;;5058535;28;20041;-90
2023/05/29 06:26:08;;;;;;;16.50;3.70;;;11.70;99.90;;;;;;5039983;28;20486;-88
2023/05/29 06:28:34;;;;;;;14.40;2.92;;;11.80;99.90;;;;;;5039687;28;20047;-88
2023/05/29 06:31:01;;;;;;;14.63;3.15;;;11.80;99.90;;;;;;5039496;28;20548;-88
2023/05/29 06:33:29;;;;;;;12.65;2.65;;;11.90;99.90;;;;;;5055547;28;20516;-88
2023/05/29 06:35:56;;;;;;;12.48;2.83;;;12.00;99.90;;;;;;5053201;28;20041;-88
2023/05/29 06:38:22;;;;;;;13.75;2.63;;;12.10;99.90;;;;;;5043983;28;20459;-88
2023/05/29 06:40:49;;;;;;;20.85;3.20;;;12.10;99.90;;;;;;5045911;28;20404;-89
2023/05/29 06:43:16;;;;;;;14.68;2.42;;;12.20;99.90;;;;;;5045563;28;20040;-88
2023/05/29 06:45:43;;;;;;;14.57;2.85;;;12.20;99.90;;;;;;5065213;28;20055;-88
2023/05/29 06:48:10;;;;;;;15.63;2.67;;;12.20;99.90;;;;;;5063228;28;20838;-86
2023/05/29 06:50:37;;;;;;;14.02;2.53;;;12.20;99.90;;;;;;5054439;28;20037;-87
2023/05/29 06:53:03;;;;;;;11.02;2.50;;;12.30;99.90;;;;;;5052426;28;20040;-87
2023/05/29 06:55:30;;;;;;;14.45;2.90;;;12.30;99.90;;;;;;5047040;28;20507;-88
2023/05/29 06:57:57;;;;;;;12.38;2.67;;;12.30;99.90;;;;;;5042598;28;20110;-85
2023/05/29 07:00:23;;;;;;;18.48;2.95;;;12.30;99.90;;;;;;5039271;28;20040;-88
2023/05/29 07:02:51;;;;;;;15.07;2.80;;;12.30;99.90;;;;;;5038951;28;20059;-87
2023/05/29 07:05:17;;;;;;;11.88;2.42;;;12.40;99.90;;;;;;5047248;28;20081;-88
2023/05/29 07:07:44;;;;;;;18.02;3.03;;;12.40;99.90;;;;;;5071480;28;20068;-89
2023/05/29 07:10:11;;;;;;;15.30;3.50;;;12.40;99.90;;;;;;5071153;28;20049;-87
2023/05/29 07:12:38;;;;;;;12.02;2.47;;;12.50;99.90;;;;;;5058121;28;20132;-88
2023/05/29 07:15:05;;;;;;;17.08;2.70;;;12.50;99.90;;;;;;5048733;28;20044;-86
2023/05/29 07:17:31;;;;;;;9.35;2.50;;;12.70;99.90;;;;;;5057185;28;20394;-89
2023/05/29 07:19:58;;;;;;;15.00;3.10;;;12.80;99.90;;;;;;5054202;28;20040;-88
2023/05/29 07:22:25;;;;;;;18.48;3.05;;;12.80;99.90;;;;;;5059825;28;20127;-89
2023/05/29 07:24:51;;;;;;;20.45;2.67;;;12.90;99.90;;;;;;5059203;28;20036;-89
2023/05/29 07:27:18;;;;;;;14.43;2.75;;;12.90;99.90;;;;;;5086780;28;20029;-89
2023/05/29 07:29:45;;;;;;;21.23;3.20;;;13.00;99.90;;;;;;5099842;28;20497;-89
2023/05/29 07:32:11;;;;;;;14.48;2.85;;;13.10;99.90;;;;;;5073566;28;20051;-88
2023/05/29 07:34:38;;;;;;;15.50;3.13;;;13.20;99.90;;;;;;5098513;28;20042;-89
2023/05/29 07:37:07;;;;;;;18.85;4.53;;;13.20;99.90;;;;;;5044150;28;20049;-90
2023/05/29 07:39:34;;;;;;;17.38;3.60;;;13.40;99.90;;;;;;5070187;28;20409;-89
2023/05/29 07:42:02;;;;;;;14.90;2.50;;;13.50;99.90;;;;;;5077076;28;20069;-90
2023/05/29 07:44:29;;;;;;;14.68;2.65;;;13.50;99.90;;;;;;5067650;28;20046;-89
2023/05/29 07:46:56;;;;;;;17.67;2.72;;;13.40;99.90;;;;;;5074832;28;20051;-89
2023/05/29 07:49:23;;;;;;;10.43;2.40;;;13.30;99.90;;;;;;5064012;28;20119;-88
2023/05/29 07:51:49;;;;;;;13.32;2.50;;;13.20;99.90;;;;;;5104054;28;20063;-88
2023/05/29 07:54:20;;;;;;;11.73;2.78;;;13.10;99.90;;;;;;5055187;28;20040;-88
2023/05/29 07:56:47;;;;;;;20.15;3.03;;;13.30;99.90;;;;;;5065450;28;20566;-88
2023/05/29 07:59:14;;;;;;;13.63;3.10;;;13.30;99.90;;;;;;5073392;28;20036;-87
2023/05/29 08:01:41;;;;;;;16.75;2.85;;;13.40;99.90;;;;;;5071552;28;20076;-87
2023/05/29 08:04:07;;;;;;;16.63;2.88;;;13.40;99.90;;;;;;5058940;28;20108;-87
2023/05/29 08:06:34;;;;;;;15.68;3.60;;;13.50;99.90;;;;;;5036817;28;20045;-87
2023/05/29 08:09:01;;;;;;;18.48;3.08;;;13.60;99.90;;;;;;5040898;28;20565;-88
2023/05/29 08:11:28;;;;;;;18.20;3.45;;;13.70;99.90;;;;;;5080233;28;20065;-86
2023/05/29 08:13:55;;;;;;;11.48;2.85;;;13.90;99.90;;;;;;5057682;28;20040;-87
2023/05/29 08:16:22;;;;;;;14.88;3.17;;;13.90;99.90;;;;;;5051579;28;20093;-86
2023/05/29 08:18:49;;;;;;;12.85;2.65;;;13.90;99.90;;;;;;5063223;28;20477;-88
2023/05/29 08:21:16;;;;;;;23.30;2.88;;;13.90;99.90;;;;;;5067968;28;20041;-88
2023/05/29 08:23:42;;;;;;;19.83;2.58;;;14.00;99.90;;;;;;5058047;28;20409;-88
2023/05/29 08:26:09;;;;;;;15.48;2.70;;;14.20;99.90;;;;;;5070118;28;20541;-88
2023/05/29 08:28:36;;;;;;;14.10;2.90;;;14.20;99.90;;;;;;5040358;28;20045;-87
2023/05/29 08:31:03;;;;;;;21.67;3.28;;;14.40;99.90;;;;;;5071550;28;20040;-88
2023/05/29 08:33:30;;;;;;;15.55;3.50;;;14.40;99.90;;;;;;5071174;28;20047;-87
2023/05/29 08:35:58;;;;;;;14.50;2.78;;;14.40;99.90;;;;;;5071225;28;20051;-87
2023/05/29 08:38:27;;;;;;;13.52;2.60;;;14.50;99.90;;;;;;5077093;28;20047;-87
2023/05/29 08:40:55;;;;;;;15.20;3.17;;;14.50;99.90;;;;;;5046551;28;20033;-90
2023/05/29 08:43:25;;;;;;;12.10;2.80;;;14.50;99.90;;;;;;5066001;28;20409;-91
2023/05/29 08:46:01;;;;;;;14.75;3.03;;;14.50;99.90;;;;;;5089857;28;20120;-87
2023/05/29 08:48:29;;;;;;;18.67;2.60;;;14.50;99.90;;;;;;5065133;28;20047;-88
2023/05/29 08:50:58;;;;;;;14.60;2.60;;;14.60;99.90;;;;;;5085373;28;20041;-87
2023/05/29 08:53:25;;;;;;;15.18;3.20;;;14.70;99.90;;;;;;5060806;28;20037;-89
2023/05/29 08:55:52;;;;;;;17.92;2.80;;;14.70;99.90;;;;;;5052726;28;20438;-85
2023/05/29 08:58:23;;;;;;;10.90;2.38;;;14.70;99.90;;;;;;5085456;28;20037;-85
2023/05/29 09:00:53;;;;;;;11.48;2.60;;;14.70;99.90;;;;;;5052656;28;20863;-85
2023/05/29 09:03:21;;;;;;;15.80;2.85;;;14.70;99.90;;;;;;5052378;28;20041;-85
2023/05/29 09:05:49;;;;;;;16.90;3.75;;;14.70;99.90;;;;;;5052624;28;20565;-84
2023/05/29 09:08:16;;;;;;;16.90;2.83;;;14.80;99.90;;;;;;5075565;28;20056;-85
2023/05/29 09:10:43;;;;;;;12.10;2.30;;;14.80;99.90;;;;;;5054622;28;20489;-85
2023/05/29 09:13:13;;;;;;;11.43;2.47;;;14.90;99.90;;;;;;5041319;28;20040;-85
2023/05/29 09:15:42;;;;;;;15.52;3.30;;;14.80;99.90;;;;;;5107012;28;20060;-85
2023/05/29 09:18:10;;;;;;;13.35;2.58;;;15.00;99.90;;;;;;5076100;28;20041;-85
2023/05/29 09:20:36;;;;;;;12.75;3.28;;;15.00;99.90;;;;;;5067238;28;20690;-84
2023/05/29 09:23:05;;;;;;;14.63;2.70;;;15.10;99.90;;;;;;5059485;28;20127;-84
2023/05/29 09:25:35;;;;;;;17.17;3.05;;;15.10;99.90;;;;;;5094733;28;20119;-84
2023/05/29 09:28:08;;;;;;;17.92;2.80;;;15.10;99.90;;;;;;5109209;28;20032;-84
2023/05/29 09:30:34;;;;;;;16.38;2.50;;;15.10;99.90;;;;;;5108757;28;20489;-84
2023/05/29 09:33:02;;;;;;;16.98;3.35;;;15.20;99.90;;;;;;5088898;28;20083;-85
2023/05/29 09:35:45;;;;;;;15.13;3.10;;;15.30;99.90;;;;;;5092394;28;20044;-85
2023/05/29 09:38:14;;;;;;;14.60;2.60;;;15.30;99.90;;;;;;5072420;28;20421;-85
2023/05/29 09:40:41;;;;;;;21.80;2.75;;;15.50;99.90;;;;;;5052422;28;20519;-85
2023/05/29 09:43:19;;;;;;;11.13;2.70;;;15.50;99.90;;;;;;5088448;28;20041;-84
2023/05/29 09:45:48;;;;;;;11.77;2.50;;;15.50;99.90;;;;;;5105259;28;20041;-85
2023/05/29 09:48:22;;;;;;;14.88;3.10;;;15.50;99.90;;;;;;5104904;28;20078;-85
2023/05/29 09:50:50;;;;;;;14.70;2.78;;;15.50;99.90;;;;;;5105227;28;20033;-85
2023/05/29 09:53:24;;;;;;;14.07;3.00;;;15.50;99.90;;;;;;5073460;28;20037;-85
2023/05/29 09:55:52;;;;;;;12.70;2.47;;;15.50;99.90;;;;;;5071405;28;20045;-85
2023/05/29 09:58:20;;;;;;;14.63;2.50;;;15.50;99.90;;;;;;5074054;28;20032;-84
2023/05/29 10:00:48;;;;;;;15.30;2.58;;;15.60;99.90;;;;;;5091532;28;20181;-85
2023/05/29 10:03:16;;;;;;;9.05;2.53;;;15.70;99.90;;;;;;5071101;28;20033;-86
2023/05/29 10:05:50;;;;;;;10.07;2.33;;;15.70;99.90;;;;;;5074227;28;20032;-86
2023/05/29 10:08:20;;;;;;;17.50;2.97;;;15.60;99.90;;;;;;5108024;28;20032;-86
2023/05/29 10:10:58;;;;;;;12.55;2.40;;;15.70;99.90;;;;;;5091338;28;20078;-85
2023/05/29 10:13:31;;;;;;;18.95;3.38;;;15.80;99.90;;;;;;5087775;28;20041;-84
2023/05/29 10:16:00;;;;;;;14.52;2.58;;;15.90;99.90;;;;;;5071029;28;20401;-86
2023/05/29 10:18:41;;;;;;;16.40;3.17;;;15.90;99.90;;;;;;5088042;28;20036;-86
2023/05/29 10:21:12;;;;;;;15.05;2.85;;;16.10;99.90;;;;;;5107527;28;20040;-85
2023/05/29 10:23:41;;;;;;;14.82;2.58;;;16.30;99.90;;;;;;5077670;28;20033;-85
2023/05/29 10:26:29;;;;;;;12.70;3.00;;;16.40;99.90;;;;;;5103821;28;20098;-86
2023/05/29 10:29:11;;;;;;;13.05;2.95;;;16.40;99.90;;;;;;5057553;28;20041;-86
2023/05/29 10:32:07;;;;;;;13.93;2.28;;;16.20;99.90;;;;;;5079855;28;20037;-85
2023/05/29 10:35:00;;;;;;;15.02;2.70;;;16.30;99.90;;;;;;5083670;28;20047;-86
2023/05/29 10:37:39;;;;;;;14.57;2.90;;;16.30;99.90;;;;;;5072041;28;20039;-85
2023/05/29 10:40:12;;;;;;;14.57;3.00;;;16.20;99.90;;;;;;5088617;28;20531;-86
2023/05/29 10:42:40;;;;;;;13.68;2.67;;;16.20;99.90;;;;;;5068686;28;20043;-85
2023/05/29 10:45:07;;;;;;;15.02;2.67;;;16.20;99.90;;;;;;5101211;28;20028;-85
2023/05/29 10:47:33;;;;;;;11.52;2.40;;;16.20;99.90;;;;;;5065251;28;20098;-86
2023/05/29 10:50:01;;;;;;;9.93;2.42;;;16.10;99.90;;;;;;5038170;28;20045;-86
2023/05/29 10:52:32;;;;;;;14.77;2.65;;;16.00;99.90;;;;;;5054449;28;20084;-86
2023/05/29 10:55:00;;;;;;;15.60;2.47;;;16.10;99.90;;;;;;5040813;28;20047;-86
2023/05/29 10:57:29;;;;;;;12.20;2.47;;;16.20;99.90;;;;;;5090410;28;20052;-86
2023/05/29 11:00:05;;;;;;;12.52;2.53;;;16.30;99.90;;;;;;5074274;28;20790;-85
2023/05/29 11:02:36;;;;;;;12.05;2.50;;;16.30;99.90;;;;;;5071787;28;20130;-86
2023/05/29 11:05:19;;;;;;;9.13;2.35;;;16.30;99.90;;;;;;5070013;28;20033;-86
2023/05/29 11:07:55;;;;;;;13.80;2.78;;;16.20;99.90;;;;;;5073629;28;20040;-86
2023/05/29 11:10:45;;;;;;;14.40;2.42;;;16.20;99.90;;;;;;5087434;28;20041;-86
2023/05/29 11:13:28;;;;;;;15.93;2.75;;;16.20;99.90;;;;;;5103372;28;20413;-86
2023/05/29 11:16:29;;;;;;;12.38;2.30;;;16.20;99.90;;;;;;5079887;28;20690;-85
2023/05/29 11:19:09;;;;;;;16.90;2.80;;;16.10;99.90;;;;;;5086712;28;20041;-86
2023/05/29 11:21:50;;;;;;;10.05;2.50;;;16.20;99.90;;;;;;5070327;28;20037;-86
2023/05/29 11:24:25;;;;;;;14.38;2.22;;;16.30;99.90;;;;;;5085366;28;20043;-86
2023/05/29 11:26:53;;;;;;;11.93;2.65;;;16.30;99.90;;;;;;5066636;28;20541;-86
2023/05/29 11:29:28;;;;;;;20.05;3.17;;;16.50;99.90;;;;;;5103110;28;20037;-86
2023/05/29 11:32:07;;;;;;;12.93;2.75;;;16.60;99.90;;;;;;5094472;28;20091;-86
2023/05/29 11:34:38;;;;;;;11.13;2.28;;;16.60;99.90;;;;;;5067924;28;20072;-86
2023/05/29 11:37:05;;;;;;;10.23;2.67;;;16.60;99.90;;;;;;5086427;28;20045;-86
2023/05/29 11:39:36;;;;;;;11.25;2.80;;;16.70;99.90;;;;;;5058759;28;20037;-86
2023/05/29 11:42:03;;;;;;;12.93;2.80;;;16.80;99.90;;;;;;5082504;28;20037;-86
2023/05/29 11:44:30;;;;;;;14.95;2.90;;;16.70;99.90;;;;;;5089903;28;20029;-86
2023/05/29 11:47:05;;;;;;;14.65;2.65;;;16.80;99.90;;;;;;5044539;28;20231;-86
2023/05/29 11:49:33;;;;;;;19.23;3.00;;;16.70;99.90;;;;;;5081997;28;20505;-86
2023/05/29 11:52:14;;;;;;;15.48;2.83;;;16.70;99.90;;;;;;5085612;28;20409;-86
2023/05/29 11:54:47;;;;;;;8.20;2.10;;;16.80;99.90;;;;;;5085696;28;20047;-86
2023/05/29 11:57:21;;;;;;;11.95;2.65;;;16.70;99.90;;;;;;5054804;28;20043;-86
2023/05/29 11:59:52;;;;;;;11.50;2.50;;;16.70;99.90;;;;;;5069095;28;20049;-86
2023/05/29 12:02:19;;;;;;;8.18;2.60;;;16.70;99.90;;;;;;5070145;28;20087;-86
2023/05/29 12:05:03;;;;;;;9.85;2.72;;;16.80;99.90;;;;;;5069487;28;20041;-86
2023/05/29 12:07:30;;;;;;;11.55;2.67;;;16.80;99.90;;;;;;5098233;28;20033;-86
2023/05/29 12:09:59;;;;;;;13.05;3.10;;;16.80;99.90;;;;;;5056471;28;20045;-86
2023/05/29 12:12:29;;;;;;;9.77;2.60;;;16.70;99.90;;;;;;5068431;28;20056;-86
2023/05/29 12:14:55;;;;;;;11.45;2.30;;;16.70;99.90;;;;;;5037060;28;20045;-86
2023/05/29 12:17:22;;;;;;;11.35;2.42;;;16.70;99.90;;;;;;5053893;28;20078;-86
2023/05/29 12:19:49;;;;;;;11.63;2.75;;;16.70;99.90;;;;;;5036434;28;20118;-86
2023/05/29 12:22:16;;;;;;;12.05;2.50;;;16.70;99.90;;;;;;5036700;28;20132;-86
2023/05/29 12:24:42;;;;;;;11.27;2.70;;;16.80;99.90;;;;;;5069406;28;20124;-87
2023/05/29 12:27:09;;;;;;;11.88;2.78;;;16.90;99.90;;;;;;5053119;28;20033;-82
2023/05/29 12:29:36;;;;;;;12.27;2.53;;;16.80;99.90;;;;;;5035874;28;20045;-82
2023/05/29 12:32:03;;;;;;;16.73;2.47;;;17.00;99.90;;;;;;5035978;28;20136;-85
2023/05/29 12:34:37;;;;;;;11.63;2.20;;;16.90;99.90;;;;;;5036958;28;20041;-86
2023/05/29 12:37:09;;;;;;;12.10;2.63;;;16.90;99.90;;;;;;5052603;28;20041;-86
2023/05/29 12:39:36;;;;;;;13.00;3.10;;;16.90;99.90;;;;;;5069235;28;20296;-86
2023/05/29 12:42:03;;;;;;;11.73;2.47;;;16.90;99.90;;;;;;5036074;28;20051;-87
2023/05/29 12:44:30;;;;;;;14.77;3.10;;;17.00;99.90;;;;;;5051800;28;20048;-85
2023/05/29 12:46:57;;;;;;;16.83;2.95;;;16.90;99.90;;;;;;5072331;28;20435;-86
2023/05/29 12:49:26;;;;;;;11.32;2.20;;;16.90;99.90;;;;;;5076927;28;20405;-87